sensor_id;sensor_type;location;lat;lon;timestamp;temperature;humidity
3310;DHT22;1667;53.238;10.394;2022-12-24T00:02:55;9.80;99.90
3310;DHT22;1667;53.238;10.394;2022-12-24T00:07:53;9.80;99.90
3310;DHT22;1667;53.238;10.394;2022-12-24T00:12:52;9.80;99.90
3310;DHT22;1667;53.238;10.394;2022-12-24T00:17:52;9.80;99.90
3310;DHT22;1667;53.238;10.394;2022-12-24T00:22:50;9.70;99.90
3310;DHT22;1667;53.238;10.394;2022-12-24T00:27:48;9.70;99.90
3310;DHT22;1667;53.238;10.394;2022-12-24T00:32:47;9.70;99.90
3310;DHT22;1667;53.238;10.394;2022-12-24T00:37:47;9.80;99.90
3310;DHT22;1667;53.238;10.394;2022-12-24T00:42:46;9.80;99.90
3310;DHT22;1667;53.238;10.394;2022-12-24T00:47:44;9.70;99.90
3310;DHT22;1667;53.238;10.394;2022-12-24T00:52:43;9.70;99.90
3310;DHT22;1667;53.238;10.394;2022-12-24T00:57:43;9.70;99.90
3310;DHT22;1667;53.238;10.394;2022-12-24T01:02:41;9.70;99.90
3310;DHT22;1667;53.238;10.394;2022-12-24T01:07:41;9.70;99.90
3310;DHT22;1667;53.238;10.394;2022-12-24T01:12:42;9.70;99.90
3310;DHT22;1667;53.238;10.394;2022-12-24T01:17:41;9.70;99.90
3310;DHT22;1667;53.238;10.394;2022-12-24T01:22:40;9.70;99.90
3310;DHT22;1667;53.238;10.394;2022-12-24T01:27:38;9.70;99.90
3310;DHT22;1667;53.238;10.394;2022-12-24T01:32:38;9.70;99.90
3310;DHT22;1667;53.238;10.394;2022-12-24T01:37:37;9.70;99.90
3310;DHT22;1667;53.238;10.394;2022-12-24T01:42:37;9.70;99.90
3310;DHT22;1667;53.238;10.394;2022-12-24T01:47:55;9.70;99.90
3310;DHT22;1667;53.238;10.394;2022-12-24T01:52:53;9.70;99.90
3310;DHT22;1667;53.238;10.394;2022-12-24T01:57:54;9.60;99.90
3310;DHT22;1667;53.238;10.394;2022-12-24T02:02:55;9.60;99.90
3310;DHT22;1667;53.238;10.394;2022-12-24T02:07:54;9.60;99.90
3310;DHT22;1667;53.238;10.394;2022-12-24T02:12:54;9.70;99.90
3310;DHT22;1667;53.238;10.394;2022-12-24T02:18:01;9.70;99.90
3310;DHT22;1667;53.238;10.394;2022-12-24T02:28:52;9.50;99.90
3310;DHT22;1667;53.238;10.394;2022-12-24T02:34:02;9.50;99.90
3310;DHT22;1667;53.238;10.394;2022-12-24T02:39:05;9.50;99.90
3310;DHT22;1667;53.238;10.394;2022-12-24T02:44:05;9.50;99.90
3310;DHT22;1667;53.238;10.394;2022-12-24T02:49:05;9.50;99.90
3310;DHT22;1667;53.238;10.394;2022-12-24T02:54:04;9.50;99.90
3310;DHT22;1667;53.238;10.394;2022-12-24T02:59:14;9.50;99.90
3310;DHT22;1667;53.238;10.394;2022-12-24T03:04:22;9.50;99.90
3310;DHT22;1667;53.238;10.394;2022-12-24T03:09:41;9.50;99.90
3310;DHT22;1667;53.238;10.394;2022-12-24T03:14:44;9.50;99.90
3310;DHT22;1667;53.238;10.394;2022-12-24T03:19:46;9.50;99.90
3310;DHT22;1667;53.238;10.394;2022-12-24T03:24:44;9.50;99.90
3310;DHT22;1667;53.238;10.394;2022-12-24T03:29:44;9.50;99.90
3310;DHT22;1667;53.238;10.394;2022-12-24T03:34:45;9.50;99.90
3310;DHT22;1667;53.238;10.394;2022-12-24T03:39:43;9.50;99.90
3310;DHT22;1667;53.238;10.394;2022-12-24T03:44:42;9.50;99.90
3310;DHT22;1667;53.238;10.394;2022-12-24T03:49:40;9.60;99.90
3310;DHT22;1667;53.238;10.394;2022-12-24T03:54:40;9.60;99.90
3310;DHT22;1667;53.238;10.394;2022-12-24T03:59:38;9.60;99.90
3310;DHT22;1667;53.238;10.394;2022-12-24T04:04:37;9.60;99.90
3310;DHT22;1667;53.238;10.394;2022-12-24T04:09:36;9.60;99.90
3310;DHT22;1667;53.238;10.394;2022-12-24T04:14:36;9.60;99.90
3310;DHT22;1667;53.238;10.394;2022-12-24T04:19:35;9.60;99.90
3310;DHT22;1667;53.238;10.394;2022-12-24T04:24:33;9.60;99.90
3310;DHT22;1667;53.238;10.394;2022-12-24T04:29:32;9.60;99.90
3310;DHT22;1667;53.238;10.394;2022-12-24T04:34:32;9.60;99.90
3310;DHT22;1667;53.238;10.394;2022-12-24T04:39:30;9.60;99.90
3310;DHT22;1667;53.238;10.394;2022-12-24T04:44:29;9.60;99.90
3310;DHT22;1667;53.238;10.394;2022-12-24T04:49:28;9.50;99.90
3310;DHT22;1667;53.238;10.394;2022-12-24T04:54:28;9.50;99.90
3310;DHT22;1667;53.238;10.394;2022-12-24T04:59:26;9.50;99.90
3310;DHT22;1667;53.238;10.394;2022-12-24T05:04:24;9.50;99.90
3310;DHT22;1667;53.238;10.394;2022-12-24T05:09:23;9.40;99.90
3310;DHT22;1667;53.238;10.394;2022-12-24T05:14:23;9.40;99.90
3310;DHT22;1667;53.238;10.394;2022-12-24T05:19:21;9.40;99.90
3310;DHT22;1667;53.238;10.394;2022-12-24T05:24:20;9.40;99.90
3310;DHT22;1667;53.238;10.394;2022-12-24T05:29:39;9.40;99.90
3310;DHT22;1667;53.238;10.394;2022-12-24T05:34:38;9.40;99.90
3310;DHT22;1667;53.238;10.394;2022-12-24T05:39:37;9.40;99.90
3310;DHT22;1667;53.238;10.394;2022-12-24T05:44:35;9.40;99.90
3310;DHT22;1667;53.238;10.394;2022-12-24T05:49:35;9.40;99.90
3310;DHT22;1667;53.238;10.394;2022-12-24T05:54:34;9.40;99.90
3310;DHT22;1667;53.238;10.394;2022-12-24T05:59:32;9.40;99.90
3310;DHT22;1667;53.238;10.394;2022-12-24T06:04:31;9.40;99.90
3310;DHT22;1667;53.238;10.394;2022-12-24T06:09:31;9.50;99.90
3310;DHT22;1667;53.238;10.394;2022-12-24T06:14:30;9.50;99.90
3310;DHT22;1667;53.238;10.394;2022-12-24T06:19:28;9.50;99.90
3310;DHT22;1667;53.238;10.394;2022-12-24T06:24:27;9.50;99.90
3310;DHT22;1667;53.238;10.394;2022-12-24T06:29:27;9.50;99.90
3310;DHT22;1667;53.238;10.394;2022-12-24T06:34:25;9.50;99.90
3310;DHT22;1667;53.238;10.394;2022-12-24T06:39:24;9.50;99.90
3310;DHT22;1667;53.238;10.394;2022-12-24T06:44:23;9.40;99.90
3310;DHT22;1667;53.238;10.394;2022-12-24T06:49:24;9.40;99.90
3310;DHT22;1667;53.238;10.394;2022-12-24T06:54:22;9.50;99.90
3310;DHT22;1667;53.238;10.394;2022-12-24T06:59:21;9.50;99.90
3310;DHT22;1667;53.238;10.394;2022-12-24T07:04:19;9.40;99.90
3310;DHT22;1667;53.238;10.394;2022-12-24T07:09:19;9.40;99.90
3310;DHT22;1667;53.238;10.394;2022-12-24T07:14:18;9.40;99.90
3310;DHT22;1667;53.238;10.394;2022-12-24T07:19:16;9.40;99.90
3310;DHT22;1667;53.238;10.394;2022-12-24T07:24:15;9.40;99.90
3310;DHT22;1667;53.238;10.394;2022-12-24T07:29:15;9.40;99.90
3310;DHT22;1667;53.238;10.394;2022-12-24T07:41:09;9.40;99.90
3310;DHT22;1667;53.238;10.394;2022-12-24T07:46:08;9.30;99.90
3310;DHT22;1667;53.238;10.394;2022-12-24T07:51:07;9.30;99.90
3310;DHT22;1667;53.238;10.394;2022-12-24T07:56:05;9.30;99.90
3310;DHT22;1667;53.238;10.394;2022-12-24T08:01:10;9.30;99.90
3310;DHT22;1667;53.238;10.394;2022-12-24T08:06:09;9.30;99.90
3310;DHT22;1667;53.238;10.394;2022-12-24T08:11:08;9.20;99.90
3310;DHT22;1667;53.238;10.394;2022-12-24T08:16:06;9.30;99.90
3310;DHT22;1667;53.238;10.394;2022-12-24T08:21:07;9.30;99.90
3310;DHT22;1667;53.238;10.394;2022-12-24T08:26:07;9.30;99.90
3310;DHT22;1667;53.238;10.394;2022-12-24T08:31:06;9.30;99.90
3310;DHT22;1667;53.238;10.394;2022-12-24T08:36:07;9.30;99.90
3310;DHT22;1667;53.238;10.394;2022-12-24T08:41:06;9.30;99.90
3310;DHT22;1667;53.238;10.394;2022-12-24T08:46:05;9.30;99.90
3310;DHT22;1667;53.238;10.394;2022-12-24T08:51:07;9.40;99.90
3310;DHT22;1667;53.238;10.394;2022-12-24T08:56:08;9.40;99.90
3310;DHT22;1667;53.238;10.394;2022-12-24T09:01:11;9.50;99.90
3310;DHT22;1667;53.238;10.394;2022-12-24T09:06:12;9.50;99.90
3310;DHT22;1667;53.238;10.394;2022-12-24T09:11:13;9.50;99.90
3310;DHT22;1667;53.238;10.394;2022-12-24T09:16:12;9.50;99.90
3310;DHT22;1667;53.238;10.394;2022-12-24T09:21:14;9.50;99.90
3310;DHT22;1667;53.238;10.394;2022-12-24T09:26:15;9.50;99.90
3310;DHT22;1667;53.238;10.394;2022-12-24T09:31:14;9.50;99.90
3310;DHT22;1667;53.238;10.394;2022-12-24T09:36:14;9.60;99.90
3310;DHT22;1667;53.238;10.394;2022-12-24T09:41:16;9.60;99.90
3310;DHT22;1667;53.238;10.394;2022-12-24T09:53:17;9.60;99.90
3310;DHT22;1667;53.238;10.394;2022-12-24T09:58:21;9.60;99.90
3310;DHT22;1667;53.238;10.394;2022-12-24T10:03:20;9.70;99.90
3310;DHT22;1667;53.238;10.394;2022-12-24T10:08:26;9.80;99.90
3310;DHT22;1667;53.238;10.394;2022-12-24T10:13:40;9.80;99.90
3310;DHT22;1667;53.238;10.394;2022-12-24T10:18:48;9.80;99.90
3310;DHT22;1667;53.238;10.394;2022-12-24T10:23:54;9.80;99.90
3310;DHT22;1667;53.238;10.394;2022-12-24T10:28:57;9.90;99.90
3310;DHT22;1667;53.238;10.394;2022-12-24T10:34:00;9.90;99.90
3310;DHT22;1667;53.238;10.394;2022-12-24T10:39:00;9.90;99.90
3310;DHT22;1667;53.238;10.394;2022-12-24T10:43:59;9.90;99.90
3310;DHT22;1667;53.238;10.394;2022-12-24T10:49:00;10.00;99.90
3310;DHT22;1667;53.238;10.394;2022-12-24T10:54:06;10.00;99.90
3310;DHT22;1667;53.238;10.394;2022-12-24T10:59:05;10.10;99.90
3310;DHT22;1667;53.238;10.394;2022-12-24T11:04:03;10.10;99.90
3310;DHT22;1667;53.238;10.394;2022-12-24T11:09:20;10.20;99.90
3310;DHT22;1667;53.238;10.394;2022-12-24T11:14:20;10.20;99.90
3310;DHT22;1667;53.238;10.394;2022-12-24T11:19:24;10.30;99.90
3310;DHT22;1667;53.238;10.394;2022-12-24T11:24:27;10.40;99.90
3310;DHT22;1667;53.238;10.394;2022-12-24T11:29:27;10.40;99.90
3310;DHT22;1667;53.238;10.394;2022-12-24T11:34:27;10.50;99.90
3310;DHT22;1667;53.238;10.394;2022-12-24T11:39:28;10.60;99.90
3310;DHT22;1667;53.238;10.394;2022-12-24T11:44:27;10.60;99.90
3310;DHT22;1667;53.238;10.394;2022-12-24T11:49:27;10.70;99.90
3310;DHT22;1667;53.238;10.394;2022-12-24T11:54:30;10.80;99.90
3310;DHT22;1667;53.238;10.394;2022-12-24T11:59:35;10.80;99.90
3310;DHT22;1667;53.238;10.394;2022-12-24T12:04:35;10.80;99.90
3310;DHT22;1667;53.238;10.394;2022-12-24T12:09:40;10.90;99.90
3310;DHT22;1667;53.238;10.394;2022-12-24T12:14:44;10.90;99.90
3310;DHT22;1667;53.238;10.394;2022-12-24T12:26:33;11.00;99.90
3310;DHT22;1667;53.238;10.394;2022-12-24T12:31:35;11.00;99.90
3310;DHT22;1667;53.238;10.394;2022-12-24T12:36:41;11.00;99.90
3310;DHT22;1667;53.238;10.394;2022-12-24T12:41:51;11.10;99.90
3310;DHT22;1667;53.238;10.394;2022-12-24T12:47:02;11.10;99.90
3310;DHT22;1667;53.238;10.394;2022-12-24T12:52:09;11.10;99.90
3310;DHT22;1667;53.238;10.394;2022-12-24T12:57:12;11.20;99.90
3310;DHT22;1667;53.238;10.394;2022-12-24T13:02:25;11.20;99.90
3310;DHT22;1667;53.238;10.394;2022-12-24T13:07:50;11.40;99.90
3310;DHT22;1667;53.238;10.394;2022-12-24T13:13:26;11.40;99.90
3310;DHT22;1667;53.238;10.394;2022-12-24T13:18:47;11.50;99.90
3310;DHT22;1667;53.238;10.394;2022-12-24T13:23:48;11.60;99.90
3310;DHT22;1667;53.238;10.394;2022-12-24T13:28:48;11.60;99.90
3310;DHT22;1667;53.238;10.394;2022-12-24T13:33:48;11.60;99.90
3310;DHT22;1667;53.238;10.394;2022-12-24T13:38:47;11.60;99.90
3310;DHT22;1667;53.238;10.394;2022-12-24T13:44:13;11.60;99.90
3310;DHT22;1667;53.238;10.394;2022-12-24T13:49:17;11.60;99.90
3310;DHT22;1667;53.238;10.394;2022-12-24T13:54:18;11.50;99.90
3310;DHT22;1667;53.238;10.394;2022-12-24T13:59:28;11.50;99.90
3310;DHT22;1667;53.238;10.394;2022-12-24T14:04:35;11.50;99.90
3310;DHT22;1667;53.238;10.394;2022-12-24T14:09:46;11.50;99.90
3310;DHT22;1667;53.238;10.394;2022-12-24T14:14:48;11.50;99.90
3310;DHT22;1667;53.238;10.394;2022-12-24T14:19:48;11.50;99.90
3310;DHT22;1667;53.238;10.394;2022-12-24T14:24:52;11.40;99.90
3310;DHT22;1667;53.238;10.394;2022-12-24T14:29:59;11.40;99.90
3310;DHT22;1667;53.238;10.394;2022-12-24T14:35:08;11.40;99.90
3310;DHT22;1667;53.238;10.394;2022-12-24T14:40:15;11.40;99.90
3310;DHT22;1667;53.238;10.394;2022-12-24T14:45:27;11.40;99.90
3310;DHT22;1667;53.238;10.394;2022-12-24T14:50:54;11.30;99.90
3310;DHT22;1667;53.238;10.394;2022-12-24T14:55:55;11.30;99.90
3310;DHT22;1667;53.238;10.394;2022-12-24T15:00:57;11.30;99.90
3310;DHT22;1667;53.238;10.394;2022-12-24T15:05:57;11.20;99.90
3310;DHT22;1667;53.238;10.394;2022-12-24T15:11:02;11.20;99.90
3310;DHT22;1667;53.238;10.394;2022-12-24T15:16:05;11.20;99.90
3310;DHT22;1667;53.238;10.394;2022-12-24T15:21:07;11.20;99.90
3310;DHT22;1667;53.238;10.394;2022-12-24T15:26:23;11.20;99.90
3310;DHT22;1667;53.238;10.394;2022-12-24T15:31:24;11.20;99.90
3310;DHT22;1667;53.238;10.394;2022-12-24T15:36:27;11.20;99.90
3310;DHT22;1667;53.238;10.394;2022-12-24T15:41:30;11.20;99.90
3310;DHT22;1667;53.238;10.394;2022-12-24T15:46:35;11.20;99.90
3310;DHT22;1667;53.238;10.394;2022-12-24T15:51:35;11.10;99.90
3310;DHT22;1667;53.238;10.394;2022-12-24T15:56:38;11.00;99.90
3310;DHT22;1667;53.238;10.394;2022-12-24T16:01:42;11.00;99.90
3310;DHT22;1667;53.238;10.394;2022-12-24T16:06:54;11.00;99.90
3310;DHT22;1667;53.238;10.394;2022-12-24T16:11:53;11.00;99.90
3310;DHT22;1667;53.238;10.394;2022-12-24T16:17:00;11.00;99.90
3310;DHT22;1667;53.238;10.394;2022-12-24T16:22:01;11.00;99.90
3310;DHT22;1667;53.238;10.394;2022-12-24T16:27:20;11.00;99.90
3310;DHT22;1667;53.238;10.394;2022-12-24T16:32:29;11.00;99.90
3310;DHT22;1667;53.238;10.394;2022-12-24T16:37:28;11.00;99.90
3310;DHT22;1667;53.238;10.394;2022-12-24T16:42:27;11.10;99.90
3310;DHT22;1667;53.238;10.394;2022-12-24T16:47:44;11.10;99.90
3310;DHT22;1667;53.238;10.394;2022-12-24T16:52:43;11.10;99.90
3310;DHT22;1667;53.238;10.394;2022-12-24T16:57:42;11.10;99.90
3310;DHT22;1667;53.238;10.394;2022-12-24T17:02:40;11.10;99.90
3310;DHT22;1667;53.238;10.394;2022-12-24T17:07:40;11.00;99.90
3310;DHT22;1667;53.238;10.394;2022-12-24T17:12:40;11.00;99.90
3310;DHT22;1667;53.238;10.394;2022-12-24T17:17:39;11.00;99.90
3310;DHT22;1667;53.238;10.394;2022-12-24T17:22:39;11.00;99.90
3310;DHT22;1667;53.238;10.394;2022-12-24T17:27:38;11.00;99.90
3310;DHT22;1667;53.238;10.394;2022-12-24T17:32:37;11.00;99.90
3310;DHT22;1667;53.238;10.394;2022-12-24T17:37:35;11.00;99.90
3310;DHT22;1667;53.238;10.394;2022-12-24T17:42:35;11.00;99.90
3310;DHT22;1667;53.238;10.394;2022-12-24T17:47:34;11.00;99.90
3310;DHT22;1667;53.238;10.394;2022-12-24T17:52:32;11.00;99.90
3310;DHT22;1667;53.238;10.394;2022-12-24T17:57:32;11.00;99.90
3310;DHT22;1667;53.238;10.394;2022-12-24T18:02:32;11.00;99.90
3310;DHT22;1667;53.238;10.394;2022-12-24T18:07:31;10.90;99.90
3310;DHT22;1667;53.238;10.394;2022-12-24T18:12:29;11.00;99.90
3310;DHT22;1667;53.238;10.394;2022-12-24T18:17:28;11.00;99.90
3310;DHT22;1667;53.238;10.394;2022-12-24T18:22:28;11.00;99.90
3310;DHT22;1667;53.238;10.394;2022-12-24T18:27:27;11.00;99.90
3310;DHT22;1667;53.238;10.394;2022-12-24T18:32:26;11.00;99.90
3310;DHT22;1667;53.238;10.394;2022-12-24T18:37:24;11.00;99.90
3310;DHT22;1667;53.238;10.394;2022-12-24T18:42:24;11.00;99.90
3310;DHT22;1667;53.238;10.394;2022-12-24T18:47:23;11.00;99.90
3310;DHT22;1667;53.238;10.394;2022-12-24T18:52:21;11.00;99.90
3310;DHT22;1667;53.238;10.394;2022-12-24T18:57:20;10.90;99.90
3310;DHT22;1667;53.238;10.394;2022-12-24T19:02:20;10.90;99.90
3310;DHT22;1667;53.238;10.394;2022-12-24T19:07:18;10.90;99.90
3310;DHT22;1667;53.238;10.394;2022-12-24T19:12:17;10.90;99.90
3310;DHT22;1667;53.238;10.394;2022-12-24T19:17:16;10.90;99.90
3310;DHT22;1667;53.238;10.394;2022-12-24T19:22:16;10.80;99.90
3310;DHT22;1667;53.238;10.394;2022-12-24T19:27:14;10.80;99.90
3310;DHT22;1667;53.238;10.394;2022-12-24T19:32:13;10.90;99.90
3310;DHT22;1667;53.238;10.394;2022-12-24T19:37:11;11.00;99.90
3310;DHT22;1667;53.238;10.394;2022-12-24T19:42:11;10.90;99.90
3310;DHT22;1667;53.238;10.394;2022-12-24T19:47:13;10.80;99.90
3310;DHT22;1667;53.238;10.394;2022-12-24T19:52:11;10.70;99.90
3310;DHT22;1667;53.238;10.394;2022-12-24T20:03:59;10.60;99.90
3310;DHT22;1667;53.238;10.394;2022-12-24T20:08:58;10.50;99.90
3310;DHT22;1667;53.238;10.394;2022-12-24T20:13:58;10.50;99.90
3310;DHT22;1667;53.238;10.394;2022-12-24T20:18:59;10.50;99.90
3310;DHT22;1667;53.238;10.394;2022-12-24T20:23:59;10.60;99.90
3310;DHT22;1667;53.238;10.394;2022-12-24T20:29:02;10.30;99.90
3310;DHT22;1667;53.238;10.394;2022-12-24T20:34:03;10.30;99.90
3310;DHT22;1667;53.238;10.394;2022-12-24T20:39:01;10.20;99.90
3310;DHT22;1667;53.238;10.394;2022-12-24T20:44:00;10.10;99.90
3310;DHT22;1667;53.238;10.394;2022-12-24T20:49:02;10.10;99.90
3310;DHT22;1667;53.238;10.394;2022-12-24T20:54:01;10.20;99.90
3310;DHT22;1667;53.238;10.394;2022-12-24T20:59:00;10.20;99.90
3310;DHT22;1667;53.238;10.394;2022-12-24T21:03:59;10.20;99.90
3310;DHT22;1667;53.238;10.394;2022-12-24T21:09:03;10.20;99.90
3310;DHT22;1667;53.238;10.394;2022-12-24T21:14:02;10.20;99.90
3310;DHT22;1667;53.238;10.394;2022-12-24T21:19:00;10.20;99.90
3310;DHT22;1667;53.238;10.394;2022-12-24T21:23:58;10.20;99.90
3310;DHT22;1667;53.238;10.394;2022-12-24T21:28:58;10.10;99.90
3310;DHT22;1667;53.238;10.394;2022-12-24T21:33:57;10.20;99.90
3310;DHT22;1667;53.238;10.394;2022-12-24T21:38:56;10.10;99.90
3310;DHT22;1667;53.238;10.394;2022-12-24T21:43:54;10.00;99.90
3310;DHT22;1667;53.238;10.394;2022-12-24T21:48:54;10.00;99.90
3310;DHT22;1667;53.238;10.394;2022-12-24T21:54:11;9.90;99.90
3310;DHT22;1667;53.238;10.394;2022-12-24T21:59:23;9.90;99.90
3310;DHT22;1667;53.238;10.394;2022-12-24T22:04:25;9.80;99.90
3310;DHT22;1667;53.238;10.394;2022-12-24T22:09:23;9.80;99.90
3310;DHT22;1667;53.238;10.394;2022-12-24T22:14:38;9.70;99.90
3310;DHT22;1667;53.238;10.394;2022-12-24T22:26:33;9.70;99.90
3310;DHT22;1667;53.238;10.394;2022-12-24T22:31:32;9.60;99.90
3310;DHT22;1667;53.238;10.394;2022-12-24T22:36:30;9.60;99.90
3310;DHT22;1667;53.238;10.394;2022-12-24T22:41:29;9.50;99.90
3310;DHT22;1667;53.238;10.394;2022-12-24T22:46:29;9.50;99.90
3310;DHT22;1667;53.238;10.394;2022-12-24T22:51:28;9.70;99.90
3310;DHT22;1667;53.238;10.394;2022-12-24T22:56:26;9.50;99.90
3310;DHT22;1667;53.238;10.394;2022-12-24T23:01:34;9.40;99.90
3310;DHT22;1667;53.238;10.394;2022-12-24T23:06:33;9.40;99.90
3310;DHT22;1667;53.238;10.394;2022-12-24T23:11:32;9.40;99.90
3310;DHT22;1667;53.238;10.394;2022-12-24T23:16:32;9.30;99.90
3310;DHT22;1667;53.238;10.394;2022-12-24T23:21:31;9.30;99.90
3310;DHT22;1667;53.238;10.394;2022-12-24T23:26:30;9.30;99.90
3310;DHT22;1667;53.238;10.394;2022-12-24T23:31:28;9.20;99.90
3310;DHT22;1667;53.238;10.394;2022-12-24T23:36:28;9.20;99.90
3310;DHT22;1667;53.238;10.394;2022-12-24T23:41:27;9.10;99.90
3310;DHT22;1667;53.238;10.394;2022-12-24T23:46:25;9.10;99.90
3310;DHT22;1667;53.238;10.394;2022-12-24T23:51:26;9.00;99.90
3310;DHT22;1667;53.238;10.394;2022-12-24T23:56:25;9.10;99.90
